createdAt,value
2023-02-27T00:01:21.374Z,51.22
2023-02-27T00:03:48.659Z,51.39
2023-02-27T00:06:17.797Z,51.44
2023-02-27T00:08:45.023Z,51.37
2023-02-27T00:11:12.231Z,51.62
2023-02-27T00:13:40.034Z,51.66
2023-02-27T00:16:08.306Z,51.72
2023-02-27T00:18:35.432Z,52.13
2023-02-27T00:21:02.616Z,52.41
2023-02-27T00:23:29.728Z,52.18
2023-02-27T00:25:56.911Z,51.83
2023-02-27T00:28:24.054Z,51.98
2023-02-27T00:30:51.203Z,51.87
2023-02-27T00:33:18.523Z,52.04
2023-02-27T00:35:45.623Z,52.31
2023-02-27T00:38:13.017Z,52.27
2023-02-27T00:40:40.456Z,52.42
2023-02-27T00:43:07.641Z,51.91
2023-02-27T00:45:34.761Z,52.25
2023-02-27T00:48:02.110Z,52.45
2023-02-27T00:50:29.289Z,52.27
2023-02-27T00:52:56.512Z,52.43
2023-02-27T00:55:25.274Z,52.70
2023-02-27T00:57:53.358Z,52.89
2023-02-27T01:00:20.767Z,53.16
2023-02-27T01:02:48.093Z,53.16
2023-02-27T01:05:15.558Z,53.44
2023-02-27T01:07:42.772Z,53.25
2023-02-27T01:10:12.281Z,53.42
2023-02-27T01:12:40.453Z,53.42
2023-02-27T01:15:09.725Z,53.18
2023-02-27T01:17:37.226Z,53.37
2023-02-27T01:20:06.883Z,53.54
2023-02-27T01:22:34.995Z,53.65
2023-02-27T01:25:02.564Z,53.76
2023-02-27T01:27:29.786Z,54.11
2023-02-27T01:29:58.477Z,54.02
2023-02-27T01:32:25.960Z,53.90
2023-02-27T01:34:53.157Z,54.10
2023-02-27T01:37:20.253Z,54.22
2023-02-27T01:39:47.382Z,54.48
2023-02-27T01:42:26.753Z,54.60
2023-02-27T01:45:22.411Z,55.00
2023-02-27T01:47:54.517Z,54.84
2023-02-27T01:50:22.356Z,55.02
2023-02-27T01:52:56.512Z,55.35
2023-02-27T01:55:27.121Z,55.10
2023-02-27T01:57:54.969Z,55.32
2023-02-27T02:00:23.225Z,55.54
2023-02-27T02:03:05.010Z,55.45
2023-02-27T02:05:32.579Z,55.79
2023-02-27T02:08:00.741Z,56.02
2023-02-27T02:10:29.657Z,55.90
2023-02-27T02:12:57.029Z,55.81
2023-02-27T02:15:33.703Z,55.61
2023-02-27T02:18:12.508Z,55.55
2023-02-27T02:21:15.943Z,55.40
2023-02-27T02:24:00.581Z,55.53
2023-02-27T02:26:37.321Z,55.37
2023-02-27T02:30:01.720Z,55.40
2023-02-27T02:33:12.199Z,55.49
2023-02-27T02:36:04.366Z,55.53
2023-02-27T02:39:01.411Z,55.32
2023-02-27T02:42:09.266Z,55.58
2023-02-27T02:44:57.820Z,55.03
2023-02-27T02:48:17.798Z,55.00
2023-02-27T02:51:08.373Z,54.64
2023-02-27T02:54:00.460Z,54.65
2023-02-27T02:56:44.518Z,54.49
2023-02-27T02:59:38.012Z,53.99
2023-02-27T03:02:42.745Z,53.90
2023-02-27T03:05:22.888Z,53.85
2023-02-27T03:07:56.442Z,53.57
2023-02-27T03:10:51.284Z,53.29
2023-02-27T03:13:27.407Z,52.78
2023-02-27T03:16:28.862Z,52.49
2023-02-27T03:19:18.396Z,52.33
2023-02-27T03:21:53.830Z,52.75
2023-02-27T03:24:40.306Z,52.76
2023-02-27T03:27:09.580Z,52.26
2023-02-27T03:29:57.551Z,51.88
2023-02-27T03:32:53.927Z,51.98
2023-02-27T03:35:21.477Z,52.40
2023-02-27T03:38:24.909Z,51.91
2023-02-27T03:41:10.894Z,51.87
2023-02-27T03:43:51.634Z,51.79
2023-02-27T03:46:24.160Z,51.75
2023-02-27T03:48:51.960Z,51.55
2023-02-27T03:51:23.233Z,50.96
2023-02-27T03:54:30.682Z,51.35
2023-02-27T03:57:06.580Z,50.86
2023-02-27T03:59:35.912Z,50.53
2023-02-27T04:02:05.032Z,50.30
2023-02-27T04:04:35.649Z,50.03
2023-02-27T04:07:44.199Z,50.21
2023-02-27T04:10:17.320Z,50.27
2023-02-27T04:13:02.496Z,50.49
2023-02-27T04:16:05.736Z,50.41
2023-02-27T04:19:14.167Z,50.86
2023-02-27T04:22:26.593Z,51.28
2023-02-27T04:25:24.589Z,51.29
2023-02-27T04:28:04.052Z,51.23
2023-02-27T04:30:53.990Z,51.16
2023-02-27T04:33:30.918Z,51.23
2023-02-27T04:36:11.319Z,50.67
2023-02-27T04:39:11.630Z,50.30
2023-02-27T04:41:50.421Z,50.79
2023-02-27T04:44:21.747Z,51.82
2023-02-27T04:46:51.584Z,52.18
2023-02-27T04:49:35.880Z,52.24
2023-02-27T04:52:18.325Z,52.44
2023-02-27T04:55:07.657Z,52.48
2023-02-27T04:57:47.490Z,51.97
2023-02-27T05:00:17.120Z,51.35
2023-02-27T05:02:49.935Z,50.11
2023-02-27T05:05:24.399Z,49.98
2023-02-27T05:08:05.069Z,50.08
2023-02-27T05:10:47.304Z,50.39
2023-02-27T05:13:29.724Z,50.23
2023-02-27T05:16:08.987Z,50.89
2023-02-27T05:18:36.566Z,50.15
2023-02-27T05:21:22.574Z,50.83
2023-02-27T05:24:17.447Z,51.13
2023-02-27T05:26:53.190Z,51.55
2023-02-27T05:30:09.509Z,51.71
2023-02-27T05:32:53.208Z,51.80
2023-02-27T05:35:32.151Z,52.14
2023-02-27T05:38:06.172Z,51.61
2023-02-27T05:40:54.319Z,51.69
2023-02-27T05:43:51.782Z,51.97
2023-02-27T05:46:27.936Z,52.53
2023-02-27T05:49:01.851Z,52.53
2023-02-27T05:51:36.153Z,53.14
2023-02-27T05:54:12.964Z,53.09
2023-02-27T05:56:43.293Z,53.15
2023-02-27T05:59:35.958Z,52.92
2023-02-27T06:02:03.437Z,52.94
2023-02-27T06:04:30.653Z,52.78
2023-02-27T06:06:58.311Z,53.03
2023-02-27T06:09:25.369Z,52.93
2023-02-27T06:11:52.416Z,52.66
2023-02-27T06:14:19.844Z,52.47
2023-02-27T06:16:46.989Z,52.52
2023-02-27T06:19:14.069Z,52.53
2023-02-27T06:21:41.332Z,52.60
2023-02-27T06:24:08.429Z,52.31
2023-02-27T06:26:35.598Z,52.00
2023-02-27T06:29:02.773Z,51.55
2023-02-27T06:31:29.938Z,51.55
2023-02-27T06:33:56.968Z,51.31
2023-02-27T06:36:24.235Z,51.61
2023-02-27T06:38:51.255Z,51.24
2023-02-27T06:41:19.177Z,50.71
2023-02-27T06:43:46.275Z,49.78
2023-02-27T06:46:13.351Z,48.88
2023-02-27T06:48:40.640Z,48.04
2023-02-27T06:51:07.815Z,48.08
2023-02-27T06:53:34.896Z,48.67
2023-02-27T06:56:01.902Z,49.05
2023-02-27T06:58:29.044Z,49.12
2023-02-27T07:00:59.140Z,49.12
2023-02-27T07:03:26.412Z,48.32
2023-02-27T07:05:53.582Z,48.12
2023-02-27T07:08:20.661Z,48.11
2023-02-27T07:10:49.187Z,48.71
2023-02-27T07:13:19.525Z,47.85
2023-02-27T07:15:47.096Z,47.62
2023-02-27T07:18:14.194Z,47.57
2023-02-27T07:20:41.263Z,47.18
2023-02-27T07:23:08.296Z,47.01
2023-02-27T07:25:35.450Z,46.30
2023-02-27T07:28:02.864Z,45.96
2023-02-27T07:30:30.857Z,46.04
2023-02-27T07:32:57.995Z,46.67
2023-02-27T07:35:25.170Z,45.51
2023-02-27T07:37:52.765Z,45.88
2023-02-27T07:40:19.981Z,45.06
2023-02-27T07:42:52.737Z,45.31
2023-02-27T07:45:20.353Z,44.98
2023-02-27T07:47:47.473Z,44.31
2023-02-27T07:50:15.343Z,44.15
2023-02-27T07:52:43.822Z,44.26
2023-02-27T07:55:12.598Z,44.10
2023-02-27T07:57:39.939Z,44.32
2023-02-27T08:00:09.879Z,44.62
2023-02-27T08:02:40.193Z,44.53
2023-02-27T08:05:08.235Z,44.04
2023-02-27T08:07:36.643Z,43.67
2023-02-27T08:10:05.656Z,43.69
2023-02-27T08:12:32.737Z,42.87
2023-02-27T08:14:59.909Z,42.97
2023-02-27T08:17:26.995Z,42.93
2023-02-27T08:19:54.111Z,42.35
2023-02-27T08:22:21.599Z,42.08
2023-02-27T08:24:48.754Z,41.55
2023-02-27T08:27:15.903Z,42.09
2023-02-27T08:29:43.515Z,42.78
2023-02-27T08:32:10.659Z,43.04
2023-02-27T08:34:37.858Z,43.69
2023-02-27T08:37:04.946Z,43.11
2023-02-27T08:39:32.078Z,42.83
2023-02-27T08:41:59.187Z,42.65
2023-02-27T08:44:26.388Z,42.37
2023-02-27T08:46:53.416Z,42.98
2023-02-27T08:49:22.744Z,43.70
2023-02-27T08:51:50.002Z,43.25
2023-02-27T08:54:19.327Z,43.09
2023-02-27T08:56:48.453Z,42.57
2023-02-27T08:59:15.915Z,42.49
2023-02-27T09:01:43.651Z,42.23
2023-02-27T09:04:11.745Z,42.26
2023-02-27T09:06:39.756Z,41.71
2023-02-27T09:09:07.192Z,41.89
2023-02-27T09:11:34.757Z,42.14
2023-02-27T09:14:02.658Z,41.66
2023-02-27T09:16:30.494Z,41.69
2023-02-27T09:18:58.832Z,41.15
2023-02-27T09:21:26.086Z,41.04
2023-02-27T09:23:53.526Z,42.58
2023-02-27T09:26:22.913Z,42.79
2023-02-27T09:28:53.625Z,41.94
2023-02-27T09:31:20.798Z,41.84
2023-02-27T09:33:48.032Z,41.59
2023-02-27T09:36:16.425Z,41.75
2023-02-27T09:38:43.538Z,43.01
2023-02-27T09:41:50.830Z,43.28
2023-02-27T09:44:47.102Z,41.20
2023-02-27T09:47:41.141Z,40.32
2023-02-27T09:50:34.179Z,38.69
2023-02-27T09:53:01.597Z,39.01
2023-02-27T09:55:35.106Z,38.93
2023-02-27T09:58:11.070Z,38.72
2023-02-27T10:00:54.057Z,38.53
2023-02-27T10:03:50.275Z,38.14
2023-02-27T10:06:34.763Z,37.38
2023-02-27T10:09:16.922Z,36.74
2023-02-27T10:12:25.104Z,37.01
2023-02-27T10:15:10.675Z,37.29
2023-02-27T10:17:48.550Z,37.76
2023-02-27T10:20:33.892Z,37.55
2023-02-27T10:23:11.786Z,37.43
2023-02-27T10:25:48.350Z,37.76
2023-02-27T10:28:20.497Z,38.41
2023-02-27T10:30:53.201Z,38.56
2023-02-27T10:33:39.446Z,38.92
2023-02-27T10:36:20.727Z,39.51
2023-02-27T10:39:03.805Z,40.88
2023-02-27T10:41:31.129Z,42.18
2023-02-27T10:44:00.853Z,42.56
2023-02-27T10:46:32.284Z,43.39
2023-02-27T10:49:01.960Z,44.26
2023-02-27T10:51:39.265Z,45.29
2023-02-27T10:54:26.058Z,45.27
2023-02-27T10:56:57.023Z,45.23
2023-02-27T10:59:32.850Z,45.63
2023-02-27T11:02:05.121Z,46.92
2023-02-27T11:04:40.809Z,46.74
2023-02-27T11:07:12.554Z,47.29
2023-02-27T11:09:39.670Z,46.67
2023-02-27T11:12:34.732Z,45.42
2023-02-27T11:15:23.295Z,45.49
2023-02-27T11:17:50.531Z,45.07
2023-02-27T11:20:44.160Z,44.80
2023-02-27T11:23:24.033Z,43.76
2023-02-27T11:25:51.974Z,43.93
2023-02-27T11:28:28.339Z,43.02
2023-02-27T11:31:06.824Z,42.05
2023-02-27T11:33:48.521Z,40.63
2023-02-27T11:36:17.807Z,40.30
2023-02-27T11:38:53.490Z,39.45
2023-02-27T11:41:30.498Z,39.67
2023-02-27T11:43:59.191Z,39.25
2023-02-27T11:46:46.572Z,38.24
2023-02-27T11:49:33.359Z,36.64
2023-02-27T11:52:24.884Z,35.90
2023-02-27T11:54:58.474Z,35.42
2023-02-27T11:57:32.462Z,35.36
2023-02-27T12:00:08.904Z,34.99
2023-02-27T12:03:12.897Z,34.15
2023-02-27T12:05:57.769Z,33.78
2023-02-27T12:08:53.918Z,32.99
2023-02-27T12:11:35.686Z,32.77
2023-02-27T12:14:17.541Z,32.95
2023-02-27T12:17:09.349Z,33.52
2023-02-27T12:19:43.941Z,32.94
2023-02-27T12:22:29.764Z,34.54
2023-02-27T12:25:19.217Z,34.94
2023-02-27T12:28:23.646Z,35.18
2023-02-27T12:31:13.793Z,34.13
2023-02-27T12:34:26.157Z,33.65
2023-02-27T12:36:54.339Z,32.30
2023-02-27T12:39:24.354Z,30.62
2023-02-27T12:41:54.272Z,28.97
2023-02-27T12:44:27.333Z,29.32
2023-02-27T12:47:38.555Z,31.54
2023-02-27T12:50:22.237Z,33.79
2023-02-27T12:53:30.369Z,35.05
2023-02-27T12:56:19.477Z,36.35
2023-02-27T12:59:18.981Z,36.49
2023-02-27T13:01:58.608Z,36.13
2023-02-27T13:04:48.654Z,35.27
2023-02-27T13:07:29.169Z,32.18
2023-02-27T13:10:23.215Z,31.46
2023-02-27T13:13:13.516Z,31.93
2023-02-27T13:15:51.186Z,30.22
2023-02-27T13:18:47.438Z,28.88
2023-02-27T13:21:51.372Z,28.13
2023-02-27T13:24:28.262Z,26.49
2023-02-27T13:27:14.952Z,24.72
2023-02-27T13:29:48.039Z,24.72
2023-02-27T13:32:44.943Z,25.99
2023-02-27T13:35:48.448Z,26.22
2023-02-27T13:38:45.961Z,27.54
2023-02-27T13:41:25.072Z,28.01
2023-02-27T13:43:54.046Z,29.13
2023-02-27T13:46:39.494Z,30.24
2023-02-27T13:49:10.672Z,30.73
2023-02-27T13:51:39.933Z,31.94
2023-02-27T13:54:16.302Z,31.67
2023-02-27T13:56:59.417Z,33.01
2023-02-27T13:59:30.058Z,32.67
2023-02-27T14:02:05.115Z,31.89
2023-02-27T14:04:37.607Z,31.33
2023-02-27T14:07:15.281Z,31.70
2023-02-27T14:09:46.308Z,31.81
2023-02-27T14:12:46.481Z,29.59
2023-02-27T14:15:22.878Z,29.62
2023-02-27T14:18:05.848Z,29.48
2023-02-27T14:20:40.345Z,28.37
2023-02-27T14:23:26.566Z,26.84
2023-02-27T14:26:05.371Z,25.45
2023-02-27T14:28:51.881Z,24.72
2023-02-27T14:31:32.411Z,25.20
2023-02-27T14:34:09.201Z,26.03
2023-02-27T14:36:57.721Z,26.98
2023-02-27T14:39:36.238Z,26.28
2023-02-27T14:42:26.985Z,27.13
2023-02-27T14:44:55.145Z,27.24
2023-02-27T14:47:33.560Z,27.85
2023-02-27T14:50:04.139Z,28.44
2023-02-27T14:52:42.013Z,29.27
2023-02-27T14:55:29.524Z,29.78
2023-02-27T14:58:00.734Z,30.13
2023-02-27T15:00:33.311Z,30.06
2023-02-27T15:03:01.205Z,30.64
2023-02-27T15:05:34.861Z,30.99
2023-02-27T15:08:02.147Z,31.39
2023-02-27T15:10:31.144Z,31.30
2023-02-27T15:13:00.436Z,31.69
2023-02-27T15:15:28.342Z,32.38
2023-02-27T15:17:55.987Z,32.51
2023-02-27T15:20:30.219Z,32.79
2023-02-27T15:23:18.068Z,33.69
2023-02-27T15:25:45.596Z,34.04
2023-02-27T15:28:38.190Z,34.22
2023-02-27T15:31:07.581Z,34.69
2023-02-27T15:33:34.983Z,35.36
2023-02-27T15:36:02.415Z,35.90
2023-02-27T15:38:38.194Z,37.13
2023-02-27T15:41:17.644Z,38.74
2023-02-27T15:43:44.996Z,41.96
2023-02-27T15:46:12.249Z,42.81
2023-02-27T15:48:39.630Z,43.52
2023-02-27T15:51:10.270Z,43.05
2023-02-27T15:53:37.399Z,43.48
2023-02-27T15:56:09.550Z,43.19
2023-02-27T15:58:50.796Z,43.62
2023-02-27T16:01:21.816Z,44.42
2023-02-27T16:03:53.132Z,44.75
2023-02-27T16:06:23.472Z,45.07
2023-02-27T16:09:01.423Z,44.88
2023-02-27T16:11:35.374Z,45.14
2023-02-27T16:14:04.135Z,44.58
2023-02-27T16:16:38.835Z,44.53
2023-02-27T16:19:31.310Z,45.02
2023-02-27T16:22:17.520Z,45.18
2023-02-27T16:24:45.661Z,45.11
2023-02-27T16:27:28.905Z,45.24
2023-02-27T16:30:02.543Z,44.91
2023-02-27T16:32:41.569Z,45.06
2023-02-27T16:35:18.801Z,44.92
2023-02-27T16:37:46.320Z,45.71
2023-02-27T16:40:37.103Z,45.71
2023-02-27T16:43:04.548Z,46.21
2023-02-27T16:45:31.997Z,46.26
2023-02-27T16:48:00.770Z,46.66
2023-02-27T16:50:43.021Z,46.40
2023-02-27T16:53:10.287Z,46.97
2023-02-27T16:55:43.456Z,46.65
2023-02-27T16:58:18.962Z,47.16
2023-02-27T17:00:46.133Z,47.03
2023-02-27T17:03:14.374Z,47.23
2023-02-27T17:05:41.607Z,47.58
2023-02-27T17:08:11.059Z,47.63
2023-02-27T17:10:38.150Z,46.86
2023-02-27T17:13:05.321Z,46.46
2023-02-27T17:15:32.571Z,46.67
2023-02-27T17:17:59.748Z,46.83
2023-02-27T17:20:30.088Z,46.69
2023-02-27T17:22:57.770Z,46.88
2023-02-27T17:25:25.602Z,47.72
2023-02-27T17:27:52.964Z,48.20
2023-02-27T17:30:20.890Z,48.61
2023-02-27T17:32:47.967Z,48.64
2023-02-27T17:35:15.141Z,48.61
2023-02-27T17:37:42.233Z,48.24
2023-02-27T17:40:12.358Z,47.87
2023-02-27T17:42:40.073Z,46.52
2023-02-27T17:45:08.631Z,46.50
2023-02-27T17:47:36.016Z,46.71
2023-02-27T17:50:04.586Z,46.76
2023-02-27T17:52:31.772Z,46.68
2023-02-27T17:54:58.891Z,46.04
2023-02-27T17:57:26.024Z,46.40
2023-02-27T17:59:53.170Z,47.04
2023-02-27T18:02:20.537Z,47.09
2023-02-27T18:04:47.838Z,47.32
2023-02-27T18:07:15.014Z,47.46
2023-02-27T18:09:42.301Z,47.05
2023-02-27T18:12:09.399Z,47.59
2023-02-27T18:14:36.638Z,47.72
2023-02-27T18:17:06.830Z,47.85
2023-02-27T18:19:33.938Z,47.57
2023-02-27T18:22:01.058Z,47.53
2023-02-27T18:24:28.153Z,47.79
2023-02-27T18:26:55.243Z,46.59
2023-02-27T18:29:22.386Z,45.83
2023-02-27T18:31:53.505Z,46.18
2023-02-27T18:34:22.509Z,45.86
2023-02-27T18:36:51.892Z,45.75
2023-02-27T18:39:19.441Z,46.31
2023-02-27T18:41:47.619Z,46.31
2023-02-27T18:44:14.789Z,46.15
2023-02-27T18:46:41.969Z,46.59
2023-02-27T18:49:09.644Z,46.66
2023-02-27T18:51:37.733Z,47.13
2023-02-27T18:54:06.997Z,47.38
2023-02-27T18:56:34.138Z,47.59
2023-02-27T18:59:05.316Z,46.88
2023-02-27T19:01:37.105Z,46.82
2023-02-27T19:04:06.565Z,46.95
2023-02-27T19:06:41.081Z,47.04
2023-02-27T19:09:12.659Z,47.33
2023-02-27T19:11:39.913Z,48.11
2023-02-27T19:14:11.354Z,48.13
2023-02-27T19:16:39.223Z,48.35
2023-02-27T19:19:08.727Z,48.15
2023-02-27T19:21:36.218Z,48.04
2023-02-27T19:24:03.806Z,47.81
2023-02-27T19:26:34.237Z,47.55
2023-02-27T19:29:02.309Z,47.48
2023-02-27T19:31:29.663Z,46.62
2023-02-27T19:33:57.589Z,47.27
2023-02-27T19:36:27.597Z,47.20
2023-02-27T19:38:56.464Z,46.86
2023-02-27T19:41:24.460Z,46.97
2023-02-27T19:43:58.786Z,46.06
2023-02-27T19:46:30.589Z,45.92
2023-02-27T19:49:02.649Z,46.26
2023-02-27T19:51:29.864Z,46.22
2023-02-27T19:53:57.304Z,46.36
2023-02-27T19:56:27.734Z,45.83
2023-02-27T19:58:56.181Z,45.94
2023-02-27T20:01:28.027Z,46.23
2023-02-27T20:03:59.759Z,46.67
2023-02-27T20:06:29.890Z,46.99
2023-02-27T20:08:58.968Z,47.40
2023-02-27T20:11:32.700Z,47.51
2023-02-27T20:14:00.860Z,47.44
2023-02-27T20:16:30.401Z,47.86
2023-02-27T20:18:58.003Z,48.16
2023-02-27T20:21:28.501Z,48.55
2023-02-27T20:23:56.555Z,48.04
2023-02-27T20:26:36.341Z,48.22
2023-02-27T20:29:10.763Z,48.29
2023-02-27T20:31:41.745Z,48.35
2023-02-27T20:34:12.581Z,48.89
2023-02-27T20:36:40.452Z,48.67
2023-02-27T20:39:08.562Z,48.87
2023-02-27T20:41:36.867Z,48.97
2023-02-27T20:44:10.338Z,48.95
2023-02-27T20:46:41.065Z,48.76
2023-02-27T20:49:10.303Z,48.89
2023-02-27T20:51:39.527Z,48.60
2023-02-27T20:54:09.769Z,48.79
2023-02-27T20:56:41.398Z,48.91
2023-02-27T20:59:13.624Z,48.67
2023-02-27T21:01:42.715Z,48.62
2023-02-27T21:04:09.934Z,49.03
2023-02-27T21:06:37.104Z,49.23
2023-02-27T21:09:06.666Z,49.26
2023-02-27T21:11:34.553Z,49.16
2023-02-27T21:14:10.699Z,49.01
2023-02-27T21:16:40.586Z,49.15
2023-02-27T21:19:08.746Z,49.29
2023-02-27T21:21:36.650Z,49.09
2023-02-27T21:24:05.660Z,49.27
2023-02-27T21:26:38.069Z,49.32
2023-02-27T21:29:12.609Z,49.28
2023-02-27T21:31:41.781Z,49.32
2023-02-27T21:34:14.390Z,49.33
2023-02-27T21:36:43.895Z,49.27
2023-02-27T21:39:25.676Z,49.09
2023-02-27T21:41:53.576Z,49.12
2023-02-27T21:44:25.161Z,49.16
2023-02-27T21:46:53.849Z,48.99
2023-02-27T21:49:26.600Z,49.07
2023-02-27T21:51:53.911Z,48.14
2023-02-27T21:54:21.236Z,48.40
2023-02-27T21:56:49.398Z,48.67
2023-02-27T21:59:17.838Z,48.85
2023-02-27T22:01:47.466Z,49.12
2023-02-27T22:04:17.151Z,49.42
2023-02-27T22:06:44.641Z,48.94
2023-02-27T22:09:12.155Z,49.38
2023-02-27T22:11:40.843Z,49.56
2023-02-27T22:14:09.371Z,49.92
2023-02-27T22:16:36.599Z,49.99
2023-02-27T22:19:13.503Z,49.93
2023-02-27T22:21:41.177Z,49.98
2023-02-27T22:24:08.526Z,49.82
2023-02-27T22:26:36.525Z,50.03
2023-02-27T22:29:05.620Z,50.37
2023-02-27T22:31:36.634Z,50.48
2023-02-27T22:34:12.562Z,50.35
2023-02-27T22:36:41.734Z,50.32
2023-02-27T22:39:08.933Z,50.66
2023-02-27T22:41:39.594Z,50.88
2023-02-27T22:44:08.404Z,50.70
2023-02-27T22:46:45.501Z,50.99
2023-02-27T22:49:23.751Z,51.06
2023-02-27T22:51:52.307Z,50.69
2023-02-27T22:54:21.629Z,50.66
2023-02-27T22:56:53.204Z,49.88
2023-02-27T22:59:21.049Z,49.86
2023-02-27T23:01:49.114Z,50.06
2023-02-27T23:04:21.316Z,50.38
2023-02-27T23:06:48.895Z,50.43
2023-02-27T23:09:20.630Z,50.14
2023-02-27T23:11:48.235Z,50.54
2023-02-27T23:14:15.949Z,50.70
2023-02-27T23:16:45.831Z,50.79
2023-02-27T23:19:19.199Z,50.74
2023-02-27T23:21:46.399Z,50.87
2023-02-27T23:24:17.411Z,51.43
2023-02-27T23:26:48.459Z,50.88
2023-02-27T23:29:16.136Z,50.41
2023-02-27T23:31:43.563Z,50.34
2023-02-27T23:34:10.764Z,50.75
2023-02-27T23:36:38.888Z,50.86
2023-02-27T23:39:07.086Z,51.32
2023-02-27T23:41:35.009Z,50.89
2023-02-27T23:44:02.632Z,50.78
2023-02-27T23:46:30.557Z,50.97
2023-02-27T23:49:02.040Z,51.12
2023-02-27T23:51:30.831Z,51.61
2023-02-27T23:53:59.586Z,51.64
2023-02-27T23:56:30.881Z,52.40
2023-02-27T23:59:05.284Z,52.05
